sensor_id;sensor_type;location;lat;lon;timestamp;temperature;humidity
16038;DHT22;8123;50.906;6.172;2023-02-11T00:01:29;6.60;99.90
16038;DHT22;8123;50.906;6.172;2023-02-11T00:03:56;6.60;99.90
16038;DHT22;8123;50.906;6.172;2023-02-11T00:06:24;6.60;99.90
16038;DHT22;8123;50.906;6.172;2023-02-11T00:08:50;6.50;99.90
16038;DHT22;8123;50.906;6.172;2023-02-11T00:11:18;6.50;99.90
16038;DHT22;8123;50.906;6.172;2023-02-11T00:13:44;6.40;99.90
16038;DHT22;8123;50.906;6.172;2023-02-11T00:16:13;6.50;99.90
16038;DHT22;8123;50.906;6.172;2023-02-11T00:18:39;6.50;99.90
16038;DHT22;8123;50.906;6.172;2023-02-11T00:21:12;6.40;99.90
16038;DHT22;8123;50.906;6.172;2023-02-11T00:23:38;6.40;99.90
16038;DHT22;8123;50.906;6.172;2023-02-11T00:26:14;6.40;99.90
16038;DHT22;8123;50.906;6.172;2023-02-11T00:28:40;6.30;99.90
16038;DHT22;8123;50.906;6.172;2023-02-11T00:31:06;6.20;99.90
16038;DHT22;8123;50.906;6.172;2023-02-11T00:33:32;6.20;99.90
16038;DHT22;8123;50.906;6.172;2023-02-11T00:35:57;6.50;99.90
16038;DHT22;8123;50.906;6.172;2023-02-11T00:38:23;6.10;99.90
16038;DHT22;8123;50.906;6.172;2023-02-11T00:40:48;6.20;99.90
16038;DHT22;8123;50.906;6.172;2023-02-11T00:43:14;6.00;99.90
16038;DHT22;8123;50.906;6.172;2023-02-11T00:45:39;6.10;99.90
16038;DHT22;8123;50.906;6.172;2023-02-11T00:48:05;6.00;99.90
16038;DHT22;8123;50.906;6.172;2023-02-11T00:50:31;6.20;99.90
16038;DHT22;8123;50.906;6.172;2023-02-11T00:52:56;6.10;99.90
16038;DHT22;8123;50.906;6.172;2023-02-11T00:55:22;6.00;99.90
16038;DHT22;8123;50.906;6.172;2023-02-11T00:57:48;5.90;99.90
16038;DHT22;8123;50.906;6.172;2023-02-11T01:00:14;6.00;99.90
16038;DHT22;8123;50.906;6.172;2023-02-11T01:02:40;6.00;99.90
16038;DHT22;8123;50.906;6.172;2023-02-11T01:05:06;6.00;99.90
16038;DHT22;8123;50.906;6.172;2023-02-11T01:07:32;6.00;99.90
16038;DHT22;8123;50.906;6.172;2023-02-11T01:09:57;6.10;99.90
16038;DHT22;8123;50.906;6.172;2023-02-11T01:12:23;6.00;99.90
16038;DHT22;8123;50.906;6.172;2023-02-11T01:14:49;6.00;99.90
16038;DHT22;8123;50.906;6.172;2023-02-11T01:17:15;6.10;99.90
16038;DHT22;8123;50.906;6.172;2023-02-11T01:19:41;6.00;99.90
16038;DHT22;8123;50.906;6.172;2023-02-11T01:22:07;6.20;99.90
16038;DHT22;8123;50.906;6.172;2023-02-11T01:24:32;6.50;99.90
16038;DHT22;8123;50.906;6.172;2023-02-11T01:26:58;6.30;99.90
16038;DHT22;8123;50.906;6.172;2023-02-11T01:29:23;6.20;99.90
16038;DHT22;8123;50.906;6.172;2023-02-11T01:31:49;6.40;99.90
16038;DHT22;8123;50.906;6.172;2023-02-11T01:34:15;6.20;99.90
16038;DHT22;8123;50.906;6.172;2023-02-11T01:36:41;6.20;99.90
16038;DHT22;8123;50.906;6.172;2023-02-11T01:39:07;6.60;99.90
16038;DHT22;8123;50.906;6.172;2023-02-11T01:41:33;6.70;99.90
16038;DHT22;8123;50.906;6.172;2023-02-11T01:44:23;6.60;99.90
16038;DHT22;8123;50.906;6.172;2023-02-11T01:46:48;6.30;99.90
16038;DHT22;8123;50.906;6.172;2023-02-11T01:49:18;6.40;99.90
16038;DHT22;8123;50.906;6.172;2023-02-11T01:51:49;6.40;99.90
16038;DHT22;8123;50.906;6.172;2023-02-11T01:54:20;6.40;99.90
16038;DHT22;8123;50.906;6.172;2023-02-11T01:57:06;6.40;99.90
16038;DHT22;8123;50.906;6.172;2023-02-11T01:59:55;6.40;99.90
16038;DHT22;8123;50.906;6.172;2023-02-11T02:02:48;6.40;99.90
16038;DHT22;8123;50.906;6.172;2023-02-11T02:05:47;6.40;99.90
16038;DHT22;8123;50.906;6.172;2023-02-11T02:08:20;6.40;99.90
16038;DHT22;8123;50.906;6.172;2023-02-11T02:10:49;6.40;99.90
16038;DHT22;8123;50.906;6.172;2023-02-11T02:13:19;6.40;99.90
16038;DHT22;8123;50.906;6.172;2023-02-11T02:15:58;6.50;99.90
16038;DHT22;8123;50.906;6.172;2023-02-11T02:18:55;6.40;99.90
16038;DHT22;8123;50.906;6.172;2023-02-11T02:21:58;6.40;99.90
16038;DHT22;8123;50.906;6.172;2023-02-11T02:24:47;6.40;99.90
16038;DHT22;8123;50.906;6.172;2023-02-11T02:27:34;6.40;99.90
16038;DHT22;8123;50.906;6.172;2023-02-11T02:38:59;6.20;99.90
16038;DHT22;8123;50.906;6.172;2023-02-11T02:41:30;6.20;99.90
16038;DHT22;8123;50.906;6.172;2023-02-11T02:43:57;6.20;99.90
16038;DHT22;8123;50.906;6.172;2023-02-11T02:46:24;6.40;99.90
16038;DHT22;8123;50.906;6.172;2023-02-11T02:48:51;6.20;99.90
16038;DHT22;8123;50.906;6.172;2023-02-11T02:59:47;5.90;99.90
16038;DHT22;8123;50.906;6.172;2023-02-11T03:07:32;5.90;99.90
16038;DHT22;8123;50.906;6.172;2023-02-11T03:10:12;5.90;99.90
16038;DHT22;8123;50.906;6.172;2023-02-11T03:12:41;5.80;99.90
16038;DHT22;8123;50.906;6.172;2023-02-11T03:15:09;5.90;99.90
16038;DHT22;8123;50.906;6.172;2023-02-11T03:17:40;6.00;99.90
16038;DHT22;8123;50.906;6.172;2023-02-11T03:20:09;5.80;99.90
16038;DHT22;8123;50.906;6.172;2023-02-11T03:22:55;5.80;99.90
16038;DHT22;8123;50.906;6.172;2023-02-11T03:25:29;5.80;99.90
16038;DHT22;8123;50.906;6.172;2023-02-11T03:28:12;5.90;99.90
16038;DHT22;8123;50.906;6.172;2023-02-11T03:30:52;5.80;99.90
16038;DHT22;8123;50.906;6.172;2023-02-11T03:33:27;5.90;99.90
16038;DHT22;8123;50.906;6.172;2023-02-11T03:35:59;5.90;99.90
16038;DHT22;8123;50.906;6.172;2023-02-11T03:38:32;6.00;99.90
16038;DHT22;8123;50.906;6.172;2023-02-11T03:41:00;6.10;99.90
16038;DHT22;8123;50.906;6.172;2023-02-11T03:43:35;6.00;99.90
16038;DHT22;8123;50.906;6.172;2023-02-11T03:46:02;6.10;99.90
16038;DHT22;8123;50.906;6.172;2023-02-11T03:48:39;6.00;99.90
16038;DHT22;8123;50.906;6.172;2023-02-11T03:51:08;6.10;99.90
16038;DHT22;8123;50.906;6.172;2023-02-11T03:53:37;6.10;99.90
16038;DHT22;8123;50.906;6.172;2023-02-11T03:56:07;6.10;99.90
16038;DHT22;8123;50.906;6.172;2023-02-11T03:58:33;6.30;99.90
16038;DHT22;8123;50.906;6.172;2023-02-11T04:00:59;6.20;99.90
16038;DHT22;8123;50.906;6.172;2023-02-11T04:03:26;6.40;99.90
16038;DHT22;8123;50.906;6.172;2023-02-11T04:05:52;6.20;99.90
16038;DHT22;8123;50.906;6.172;2023-02-11T04:08:19;6.40;99.90
16038;DHT22;8123;50.906;6.172;2023-02-11T04:10:45;6.20;99.90
16038;DHT22;8123;50.906;6.172;2023-02-11T04:13:11;6.30;99.90
16038;DHT22;8123;50.906;6.172;2023-02-11T04:15:36;6.50;99.90
16038;DHT22;8123;50.906;6.172;2023-02-11T04:18:02;6.40;99.90
16038;DHT22;8123;50.906;6.172;2023-02-11T04:20:28;6.20;99.90
16038;DHT22;8123;50.906;6.172;2023-02-11T04:22:54;6.20;99.90
16038;DHT22;8123;50.906;6.172;2023-02-11T04:25:20;6.60;99.90
16038;DHT22;8123;50.906;6.172;2023-02-11T04:27:45;6.50;99.90
16038;DHT22;8123;50.906;6.172;2023-02-11T04:30:11;6.60;99.90
16038;DHT22;8123;50.906;6.172;2023-02-11T04:32:37;6.20;99.90
16038;DHT22;8123;50.906;6.172;2023-02-11T04:35:03;6.20;99.90
16038;DHT22;8123;50.906;6.172;2023-02-11T04:37:29;6.20;99.90
16038;DHT22;8123;50.906;6.172;2023-02-11T04:39:55;6.10;99.90
16038;DHT22;8123;50.906;6.172;2023-02-11T04:42:20;6.10;99.90
16038;DHT22;8123;50.906;6.172;2023-02-11T04:44:46;6.30;99.90
16038;DHT22;8123;50.906;6.172;2023-02-11T04:47:12;6.10;99.90
16038;DHT22;8123;50.906;6.172;2023-02-11T04:49:39;6.00;99.90
16038;DHT22;8123;50.906;6.172;2023-02-11T04:52:05;6.20;99.90
16038;DHT22;8123;50.906;6.172;2023-02-11T04:54:31;5.90;99.90
16038;DHT22;8123;50.906;6.172;2023-02-11T04:56:56;6.30;99.90
16038;DHT22;8123;50.906;6.172;2023-02-11T04:59:22;5.90;99.90
16038;DHT22;8123;50.906;6.172;2023-02-11T05:01:48;6.10;99.90
16038;DHT22;8123;50.906;6.172;2023-02-11T05:04:14;6.00;99.90
16038;DHT22;8123;50.906;6.172;2023-02-11T05:06:40;5.90;99.90
16038;DHT22;8123;50.906;6.172;2023-02-11T05:09:06;6.00;99.90
16038;DHT22;8123;50.906;6.172;2023-02-11T05:11:31;6.30;99.90
16038;DHT22;8123;50.906;6.172;2023-02-11T05:13:57;6.00;99.90
16038;DHT22;8123;50.906;6.172;2023-02-11T05:16:23;6.30;99.90
16038;DHT22;8123;50.906;6.172;2023-02-11T05:18:48;6.00;99.90
16038;DHT22;8123;50.906;6.172;2023-02-11T05:21:16;6.20;99.90
16038;DHT22;8123;50.906;6.172;2023-02-11T05:23:43;6.00;99.90
16038;DHT22;8123;50.906;6.172;2023-02-11T05:26:10;6.00;99.90
16038;DHT22;8123;50.906;6.172;2023-02-11T05:31:04;6.00;99.90
16038;DHT22;8123;50.906;6.172;2023-02-11T05:33:30;6.00;99.90
16038;DHT22;8123;50.906;6.172;2023-02-11T05:36:05;6.40;99.90
16038;DHT22;8123;50.906;6.172;2023-02-11T05:38:32;6.00;99.90
16038;DHT22;8123;50.906;6.172;2023-02-11T05:40:57;6.20;99.90
16038;DHT22;8123;50.906;6.172;2023-02-11T05:43:23;6.30;99.90
16038;DHT22;8123;50.906;6.172;2023-02-11T05:45:49;6.40;99.90
16038;DHT22;8123;50.906;6.172;2023-02-11T05:48:15;6.40;99.90
16038;DHT22;8123;50.906;6.172;2023-02-11T05:50:40;5.90;99.90
16038;DHT22;8123;50.906;6.172;2023-02-11T05:53:06;6.30;99.90
16038;DHT22;8123;50.906;6.172;2023-02-11T05:55:32;5.90;99.90
16038;DHT22;8123;50.906;6.172;2023-02-11T05:57:58;6.00;99.90
16038;DHT22;8123;50.906;6.172;2023-02-11T06:00:24;6.20;99.90
16038;DHT22;8123;50.906;6.172;2023-02-11T06:02:49;6.00;99.90
16038;DHT22;8123;50.906;6.172;2023-02-11T06:05:15;6.30;99.90
16038;DHT22;8123;50.906;6.172;2023-02-11T06:07:41;6.00;99.90
16038;DHT22;8123;50.906;6.172;2023-02-11T06:10:07;6.00;99.90
16038;DHT22;8123;50.906;6.172;2023-02-11T06:12:32;6.00;99.90
16038;DHT22;8123;50.906;6.172;2023-02-11T06:14:58;6.10;99.90
16038;DHT22;8123;50.906;6.172;2023-02-11T06:17:24;6.10;99.90
16038;DHT22;8123;50.906;6.172;2023-02-11T06:19:50;6.20;99.90
16038;DHT22;8123;50.906;6.172;2023-02-11T06:22:16;6.10;99.90
16038;DHT22;8123;50.906;6.172;2023-02-11T06:24:42;6.10;99.90
16038;DHT22;8123;50.906;6.172;2023-02-11T06:27:08;6.10;99.90
16038;DHT22;8123;50.906;6.172;2023-02-11T06:29:33;6.10;99.90
16038;DHT22;8123;50.906;6.172;2023-02-11T06:31:59;6.20;99.90
16038;DHT22;8123;50.906;6.172;2023-02-11T06:34:25;6.10;99.90
16038;DHT22;8123;50.906;6.172;2023-02-11T06:36:51;6.10;99.90
16038;DHT22;8123;50.906;6.172;2023-02-11T06:39:16;6.10;99.90
16038;DHT22;8123;50.906;6.172;2023-02-11T06:41:42;6.20;99.90
16038;DHT22;8123;50.906;6.172;2023-02-11T06:44:08;6.60;99.90
16038;DHT22;8123;50.906;6.172;2023-02-11T06:46:33;6.20;99.90
16038;DHT22;8123;50.906;6.172;2023-02-11T06:48:59;6.60;99.90
16038;DHT22;8123;50.906;6.172;2023-02-11T06:51:25;6.20;99.90
16038;DHT22;8123;50.906;6.172;2023-02-11T06:53:50;6.20;99.90
16038;DHT22;8123;50.906;6.172;2023-02-11T06:56:18;6.20;99.90
16038;DHT22;8123;50.906;6.172;2023-02-11T06:58:45;6.20;99.90
16038;DHT22;8123;50.906;6.172;2023-02-11T07:01:14;6.20;99.90
16038;DHT22;8123;50.906;6.172;2023-02-11T07:03:42;6.20;99.90
16038;DHT22;8123;50.906;6.172;2023-02-11T07:06:13;6.20;99.90
16038;DHT22;8123;50.906;6.172;2023-02-11T07:08:39;6.20;99.90
16038;DHT22;8123;50.906;6.172;2023-02-11T07:11:33;6.20;99.90
16038;DHT22;8123;50.906;6.172;2023-02-11T07:14:04;6.20;99.90
16038;DHT22;8123;50.906;6.172;2023-02-11T07:16:30;6.20;99.90
16038;DHT22;8123;50.906;6.172;2023-02-11T07:18:56;6.20;99.90
16038;DHT22;8123;50.906;6.172;2023-02-11T07:21:22;6.20;99.90
16038;DHT22;8123;50.906;6.172;2023-02-11T07:23:49;6.40;99.90
16038;DHT22;8123;50.906;6.172;2023-02-11T07:26:17;6.20;99.90
16038;DHT22;8123;50.906;6.172;2023-02-11T07:28:44;6.20;99.90
16038;DHT22;8123;50.906;6.172;2023-02-11T07:31:16;6.30;99.90
16038;DHT22;8123;50.906;6.172;2023-02-11T07:33:42;6.20;99.90
16038;DHT22;8123;50.906;6.172;2023-02-11T07:36:11;6.50;99.90
16038;DHT22;8123;50.906;6.172;2023-02-11T07:38:37;6.20;99.90
16038;DHT22;8123;50.906;6.172;2023-02-11T07:41:05;6.20;99.90
16038;DHT22;8123;50.906;6.172;2023-02-11T07:43:32;6.60;99.90
16038;DHT22;8123;50.906;6.172;2023-02-11T07:45:58;6.20;99.90
16038;DHT22;8123;50.906;6.172;2023-02-11T07:48:24;6.20;99.90
16038;DHT22;8123;50.906;6.172;2023-02-11T07:50:50;6.20;99.90
16038;DHT22;8123;50.906;6.172;2023-02-11T07:53:15;6.30;99.90
16038;DHT22;8123;50.906;6.172;2023-02-11T07:55:42;6.60;99.90
16038;DHT22;8123;50.906;6.172;2023-02-11T07:58:08;6.20;99.90
16038;DHT22;8123;50.906;6.172;2023-02-11T08:00:33;6.20;99.90
16038;DHT22;8123;50.906;6.172;2023-02-11T08:02:59;6.20;99.90
16038;DHT22;8123;50.906;6.172;2023-02-11T08:05:25;6.20;99.90
16038;DHT22;8123;50.906;6.172;2023-02-11T08:07:54;6.20;99.90
16038;DHT22;8123;50.906;6.172;2023-02-11T08:10:20;6.70;99.90
16038;DHT22;8123;50.906;6.172;2023-02-11T08:12:46;6.20;99.90
16038;DHT22;8123;50.906;6.172;2023-02-11T08:15:11;6.20;99.90
16038;DHT22;8123;50.906;6.172;2023-02-11T08:17:37;6.30;99.90
16038;DHT22;8123;50.906;6.172;2023-02-11T08:20:04;6.60;99.90
16038;DHT22;8123;50.906;6.172;2023-02-11T08:22:31;6.30;99.90
16038;DHT22;8123;50.906;6.172;2023-02-11T08:24:57;6.40;99.90
16038;DHT22;8123;50.906;6.172;2023-02-11T08:27:23;6.50;99.90
16038;DHT22;8123;50.906;6.172;2023-02-11T08:29:51;6.40;99.90
16038;DHT22;8123;50.906;6.172;2023-02-11T08:32:17;6.40;99.90
16038;DHT22;8123;50.906;6.172;2023-02-11T08:34:42;6.40;99.90
16038;DHT22;8123;50.906;6.172;2023-02-11T08:37:08;6.70;99.90
16038;DHT22;8123;50.906;6.172;2023-02-11T08:39:34;6.50;99.90
16038;DHT22;8123;50.906;6.172;2023-02-11T08:42:00;6.50;99.90
16038;DHT22;8123;50.906;6.172;2023-02-11T08:44:25;6.60;99.90
16038;DHT22;8123;50.906;6.172;2023-02-11T08:46:51;6.50;99.90
16038;DHT22;8123;50.906;6.172;2023-02-11T08:49:17;6.50;99.90
16038;DHT22;8123;50.906;6.172;2023-02-11T08:51:43;6.70;99.90
16038;DHT22;8123;50.906;6.172;2023-02-11T08:54:09;6.60;99.90
16038;DHT22;8123;50.906;6.172;2023-02-11T08:56:36;6.60;99.90
16038;DHT22;8123;50.906;6.172;2023-02-11T08:59:02;6.70;99.90
16038;DHT22;8123;50.906;6.172;2023-02-11T09:01:29;6.70;99.90
16038;DHT22;8123;50.906;6.172;2023-02-11T09:03:56;6.80;99.90
16038;DHT22;8123;50.906;6.172;2023-02-11T09:06:23;6.60;99.90
16038;DHT22;8123;50.906;6.172;2023-02-11T09:08:51;6.60;99.90
16038;DHT22;8123;50.906;6.172;2023-02-11T09:11:20;6.60;99.90
16038;DHT22;8123;50.906;6.172;2023-02-11T09:13:46;7.00;99.90
16038;DHT22;8123;50.906;6.172;2023-02-11T09:16:24;6.80;99.90
16038;DHT22;8123;50.906;6.172;2023-02-11T09:18:55;6.70;99.90
16038;DHT22;8123;50.906;6.172;2023-02-11T09:21:20;6.60;99.90
16038;DHT22;8123;50.906;6.172;2023-02-11T09:23:46;6.70;99.90
16038;DHT22;8123;50.906;6.172;2023-02-11T09:26:18;6.70;99.90
16038;DHT22;8123;50.906;6.172;2023-02-11T09:28:44;6.70;99.90
16038;DHT22;8123;50.906;6.172;2023-02-11T09:31:13;6.70;99.90
16038;DHT22;8123;50.906;6.172;2023-02-11T09:33:41;6.70;99.90
16038;DHT22;8123;50.906;6.172;2023-02-11T09:36:19;6.70;99.90
16038;DHT22;8123;50.906;6.172;2023-02-11T09:38:46;6.70;99.90
16038;DHT22;8123;50.906;6.172;2023-02-11T09:44:20;6.70;99.90
16038;DHT22;8123;50.906;6.172;2023-02-11T09:46:52;6.70;99.90
16038;DHT22;8123;50.906;6.172;2023-02-11T09:49:22;7.10;99.90
16038;DHT22;8123;50.906;6.172;2023-02-11T09:51:56;6.80;99.90
16038;DHT22;8123;50.906;6.172;2023-02-11T09:54:55;6.40;99.90
16038;DHT22;8123;50.906;6.172;2023-02-11T09:57:28;6.70;99.90
16038;DHT22;8123;50.906;6.172;2023-02-11T09:59:56;6.70;99.90
16038;DHT22;8123;50.906;6.172;2023-02-11T10:07:54;6.70;99.90
16038;DHT22;8123;50.906;6.172;2023-02-11T10:10:43;7.10;99.90
16038;DHT22;8123;50.906;6.172;2023-02-11T10:24:23;7.30;99.90
16038;DHT22;8123;50.906;6.172;2023-02-11T10:26:51;7.20;99.90
16038;DHT22;8123;50.906;6.172;2023-02-11T10:29:37;6.90;99.90
16038;DHT22;8123;50.906;6.172;2023-02-11T10:32:21;6.90;99.90
16038;DHT22;8123;50.906;6.172;2023-02-11T10:34:50;7.30;99.90
16038;DHT22;8123;50.906;6.172;2023-02-11T10:37:16;7.30;99.90
16038;DHT22;8123;50.906;6.172;2023-02-11T10:39:42;6.90;99.90
16038;DHT22;8123;50.906;6.172;2023-02-11T10:42:10;7.20;99.90
16038;DHT22;8123;50.906;6.172;2023-02-11T10:44:58;7.10;99.90
16038;DHT22;8123;50.906;6.172;2023-02-11T10:47:27;6.90;99.90
16038;DHT22;8123;50.906;6.172;2023-02-11T10:49:54;6.90;99.90
16038;DHT22;8123;50.906;6.172;2023-02-11T10:52:23;6.90;99.90
16038;DHT22;8123;50.906;6.172;2023-02-11T10:54:59;6.90;99.90
16038;DHT22;8123;50.906;6.172;2023-02-11T10:58:18;7.00;99.90
16038;DHT22;8123;50.906;6.172;2023-02-11T11:00:27;6.90;99.90
16038;DHT22;8123;50.906;6.172;2023-02-11T11:02:55;6.90;99.90
16038;DHT22;8123;50.906;6.172;2023-02-11T11:05:36;7.30;99.90
16038;DHT22;8123;50.906;6.172;2023-02-11T11:08:05;7.00;99.90
16038;DHT22;8123;50.906;6.172;2023-02-11T11:10:42;7.10;99.90
16038;DHT22;8123;50.906;6.172;2023-02-11T11:13:26;7.00;99.90
16038;DHT22;8123;50.906;6.172;2023-02-11T11:18:37;7.00;99.90
16038;DHT22;8123;50.906;6.172;2023-02-11T11:21:33;7.40;99.90
16038;DHT22;8123;50.906;6.172;2023-02-11T11:24:01;7.10;99.90
16038;DHT22;8123;50.906;6.172;2023-02-11T11:26:45;7.30;99.90
16038;DHT22;8123;50.906;6.172;2023-02-11T11:29:18;7.20;99.90
16038;DHT22;8123;50.906;6.172;2023-02-11T11:31:56;7.20;99.90
16038;DHT22;8123;50.906;6.172;2023-02-11T11:34:32;7.20;99.90
16038;DHT22;8123;50.906;6.172;2023-02-11T11:36:59;7.50;99.90
16038;DHT22;8123;50.906;6.172;2023-02-11T11:39:30;7.20;99.90
16038;DHT22;8123;50.906;6.172;2023-02-11T11:42:00;7.20;99.90
16038;DHT22;8123;50.906;6.172;2023-02-11T11:44:35;7.20;99.90
16038;DHT22;8123;50.906;6.172;2023-02-11T11:49:48;7.30;99.90
16038;DHT22;8123;50.906;6.172;2023-02-11T11:52:31;7.20;99.90
16038;DHT22;8123;50.906;6.172;2023-02-11T11:55:04;7.20;99.90
16038;DHT22;8123;50.906;6.172;2023-02-11T11:57:34;7.50;99.90
16038;DHT22;8123;50.906;6.172;2023-02-11T12:00:01;7.50;99.90
16038;DHT22;8123;50.906;6.172;2023-02-11T12:02:59;7.30;99.90
16038;DHT22;8123;50.906;6.172;2023-02-11T12:05:36;7.30;99.90
16038;DHT22;8123;50.906;6.172;2023-02-11T12:08:43;7.30;99.90
16038;DHT22;8123;50.906;6.172;2023-02-11T12:11:38;7.30;99.90
16038;DHT22;8123;50.906;6.172;2023-02-11T12:14:42;7.40;99.90
16038;DHT22;8123;50.906;6.172;2023-02-11T12:23:03;7.30;99.90
16038;DHT22;8123;50.906;6.172;2023-02-11T12:33:49;7.50;99.90
16038;DHT22;8123;50.906;6.172;2023-02-11T12:39:31;7.50;99.90
16038;DHT22;8123;50.906;6.172;2023-02-11T12:42:02;7.50;99.90
16038;DHT22;8123;50.906;6.172;2023-02-11T12:50:44;7.50;99.90
16038;DHT22;8123;50.906;6.172;2023-02-11T12:55:45;7.50;99.90
16038;DHT22;8123;50.906;6.172;2023-02-11T12:58:25;7.50;99.90
16038;DHT22;8123;50.906;6.172;2023-02-11T13:01:00;7.60;99.90
16038;DHT22;8123;50.906;6.172;2023-02-11T13:03:48;7.50;99.90
16038;DHT22;8123;50.906;6.172;2023-02-11T13:06:26;7.90;99.90
16038;DHT22;8123;50.906;6.172;2023-02-11T13:09:02;7.50;99.90
16038;DHT22;8123;50.906;6.172;2023-02-11T13:11:36;7.50;99.90
16038;DHT22;8123;50.906;6.172;2023-02-11T13:14:33;7.50;99.90
16038;DHT22;8123;50.906;6.172;2023-02-11T13:17:05;7.60;99.90
16038;DHT22;8123;50.906;6.172;2023-02-11T13:19:49;7.60;99.90
16038;DHT22;8123;50.906;6.172;2023-02-11T13:28:08;7.60;99.90
16038;DHT22;8123;50.906;6.172;2023-02-11T13:30:39;8.00;99.90
16038;DHT22;8123;50.906;6.172;2023-02-11T13:33:19;7.60;99.90
16038;DHT22;8123;50.906;6.172;2023-02-11T13:36:10;7.70;99.90
16038;DHT22;8123;50.906;6.172;2023-02-11T13:38:37;7.70;99.90
16038;DHT22;8123;50.906;6.172;2023-02-11T13:41:32;7.60;99.90
16038;DHT22;8123;50.906;6.172;2023-02-11T13:44:02;7.60;99.90
16038;DHT22;8123;50.906;6.172;2023-02-11T13:46:50;7.60;99.90
16038;DHT22;8123;50.906;6.172;2023-02-11T13:51:54;7.60;99.90
16038;DHT22;8123;50.906;6.172;2023-02-11T13:54:35;7.60;99.90
16038;DHT22;8123;50.906;6.172;2023-02-11T13:57:35;8.00;99.90
16038;DHT22;8123;50.906;6.172;2023-02-11T14:14:24;7.70;99.90
16038;DHT22;8123;50.906;6.172;2023-02-11T14:19:39;7.80;99.90
16038;DHT22;8123;50.906;6.172;2023-02-11T14:22:25;7.90;99.90
16038;DHT22;8123;50.906;6.172;2023-02-11T14:24:57;7.80;99.90
16038;DHT22;8123;50.906;6.172;2023-02-11T14:27:41;7.80;99.90
16038;DHT22;8123;50.906;6.172;2023-02-11T14:30:24;7.80;99.90
16038;DHT22;8123;50.906;6.172;2023-02-11T14:33:26;7.90;99.90
16038;DHT22;8123;50.906;6.172;2023-02-11T14:36:12;7.80;99.90
16038;DHT22;8123;50.906;6.172;2023-02-11T14:39:13;7.80;99.90
16038;DHT22;8123;50.906;6.172;2023-02-11T14:41:42;7.90;99.90
16038;DHT22;8123;50.906;6.172;2023-02-11T14:44:21;7.80;99.90
16038;DHT22;8123;50.906;6.172;2023-02-11T14:46:49;7.80;99.90
16038;DHT22;8123;50.906;6.172;2023-02-11T14:49:26;7.90;99.90
16038;DHT22;8123;50.906;6.172;2023-02-11T14:51:59;7.90;99.90
16038;DHT22;8123;50.906;6.172;2023-02-11T14:54:29;7.90;99.90
16038;DHT22;8123;50.906;6.172;2023-02-11T14:57:07;7.90;99.90
16038;DHT22;8123;50.906;6.172;2023-02-11T14:59:33;7.90;99.90
16038;DHT22;8123;50.906;6.172;2023-02-11T15:01:58;8.00;99.90
16038;DHT22;8123;50.906;6.172;2023-02-11T15:04:28;7.90;99.90
16038;DHT22;8123;50.906;6.172;2023-02-11T15:06:55;7.90;99.90
16038;DHT22;8123;50.906;6.172;2023-02-11T15:09:45;7.90;99.90
16038;DHT22;8123;50.906;6.172;2023-02-11T15:14:49;8.00;99.90
16038;DHT22;8123;50.906;6.172;2023-02-11T15:17:24;8.00;99.90
16038;DHT22;8123;50.906;6.172;2023-02-11T15:19:54;8.00;99.90
16038;DHT22;8123;50.906;6.172;2023-02-11T15:22:26;8.00;99.90
16038;DHT22;8123;50.906;6.172;2023-02-11T15:27:24;8.00;99.90
16038;DHT22;8123;50.906;6.172;2023-02-11T15:29:51;8.00;99.90
16038;DHT22;8123;50.906;6.172;2023-02-11T15:32:21;8.00;99.90
16038;DHT22;8123;50.906;6.172;2023-02-11T15:34:49;8.00;99.90
16038;DHT22;8123;50.906;6.172;2023-02-11T15:37:19;8.00;99.90
16038;DHT22;8123;50.906;6.172;2023-02-11T15:39:45;8.00;99.90
16038;DHT22;8123;50.906;6.172;2023-02-11T15:44:44;8.00;99.90
16038;DHT22;8123;50.906;6.172;2023-02-11T15:47:11;8.00;99.90
16038;DHT22;8123;50.906;6.172;2023-02-11T15:49:44;8.00;99.90
16038;DHT22;8123;50.906;6.172;2023-02-11T15:52:11;8.00;99.90
16038;DHT22;8123;50.906;6.172;2023-02-11T15:54:38;8.00;99.90
16038;DHT22;8123;50.906;6.172;2023-02-11T15:57:07;8.00;99.90
16038;DHT22;8123;50.906;6.172;2023-02-11T15:59:40;8.00;99.90
16038;DHT22;8123;50.906;6.172;2023-02-11T16:02:32;8.00;99.90
16038;DHT22;8123;50.906;6.172;2023-02-11T16:05:06;8.00;99.90
16038;DHT22;8123;50.906;6.172;2023-02-11T16:07:49;8.00;99.90
16038;DHT22;8123;50.906;6.172;2023-02-11T16:10:34;8.00;99.90
16038;DHT22;8123;50.906;6.172;2023-02-11T16:20:46;8.00;99.90
16038;DHT22;8123;50.906;6.172;2023-02-11T16:23:24;8.00;99.90
16038;DHT22;8123;50.906;6.172;2023-02-11T16:25:59;8.00;99.90
16038;DHT22;8123;50.906;6.172;2023-02-11T16:28:25;8.00;99.90
16038;DHT22;8123;50.906;6.172;2023-02-11T16:30:53;8.00;99.90
16038;DHT22;8123;50.906;6.172;2023-02-11T16:33:19;8.00;99.90
16038;DHT22;8123;50.906;6.172;2023-02-11T16:35:46;8.20;99.90
16038;DHT22;8123;50.906;6.172;2023-02-11T16:38:13;8.00;99.90
16038;DHT22;8123;50.906;6.172;2023-02-11T16:40:39;7.90;99.90
16038;DHT22;8123;50.906;6.172;2023-02-11T16:43:07;7.90;99.90
16038;DHT22;8123;50.906;6.172;2023-02-11T16:45:36;7.90;99.90
16038;DHT22;8123;50.906;6.172;2023-02-11T16:48:05;7.90;99.90
16038;DHT22;8123;50.906;6.172;2023-02-11T16:50:33;7.90;99.90
16038;DHT22;8123;50.906;6.172;2023-02-11T16:52:59;7.90;99.90
16038;DHT22;8123;50.906;6.172;2023-02-11T16:55:27;7.70;99.90
16038;DHT22;8123;50.906;6.172;2023-02-11T16:57:52;7.90;99.90
16038;DHT22;8123;50.906;6.172;2023-02-11T17:00:18;7.90;99.90
16038;DHT22;8123;50.906;6.172;2023-02-11T17:02:44;7.80;99.90
16038;DHT22;8123;50.906;6.172;2023-02-11T17:05:18;7.80;99.90
16038;DHT22;8123;50.906;6.172;2023-02-11T17:07:45;8.20;99.90
16038;DHT22;8123;50.906;6.172;2023-02-11T17:10:19;7.80;99.90
16038;DHT22;8123;50.906;6.172;2023-02-11T17:12:45;7.80;99.90
16038;DHT22;8123;50.906;6.172;2023-02-11T17:15:13;7.90;99.90
16038;DHT22;8123;50.906;6.172;2023-02-11T17:17:39;7.90;99.90
16038;DHT22;8123;50.906;6.172;2023-02-11T17:20:05;7.90;99.90
16038;DHT22;8123;50.906;6.172;2023-02-11T17:22:31;7.80;99.90
16038;DHT22;8123;50.906;6.172;2023-02-11T17:24:57;7.80;99.90
16038;DHT22;8123;50.906;6.172;2023-02-11T17:27:23;7.80;99.90
16038;DHT22;8123;50.906;6.172;2023-02-11T17:29:48;7.80;99.90
16038;DHT22;8123;50.906;6.172;2023-02-11T17:32:14;7.80;99.90
16038;DHT22;8123;50.906;6.172;2023-02-11T17:34:40;7.80;99.90
16038;DHT22;8123;50.906;6.172;2023-02-11T17:37:05;7.80;99.90
16038;DHT22;8123;50.906;6.172;2023-02-11T17:39:38;7.80;99.90
16038;DHT22;8123;50.906;6.172;2023-02-11T17:42:04;7.80;99.90
16038;DHT22;8123;50.906;6.172;2023-02-11T17:44:31;7.80;99.90
16038;DHT22;8123;50.906;6.172;2023-02-11T17:46:57;7.80;99.90
16038;DHT22;8123;50.906;6.172;2023-02-11T17:49:23;7.80;99.90
16038;DHT22;8123;50.906;6.172;2023-02-11T17:51:49;7.80;99.90
16038;DHT22;8123;50.906;6.172;2023-02-11T17:54:17;7.80;99.90
16038;DHT22;8123;50.906;6.172;2023-02-11T17:56:44;7.80;99.90
16038;DHT22;8123;50.906;6.172;2023-02-11T17:59:11;7.80;99.90
16038;DHT22;8123;50.906;6.172;2023-02-11T18:01:38;7.80;99.90
16038;DHT22;8123;50.906;6.172;2023-02-11T18:04:05;7.80;99.90
16038;DHT22;8123;50.906;6.172;2023-02-11T18:06:31;7.80;99.90
16038;DHT22;8123;50.906;6.172;2023-02-11T18:09:00;7.80;99.90
16038;DHT22;8123;50.906;6.172;2023-02-11T18:11:30;7.80;99.90
16038;DHT22;8123;50.906;6.172;2023-02-11T18:13:58;7.80;99.90
16038;DHT22;8123;50.906;6.172;2023-02-11T18:16:23;7.80;99.90
16038;DHT22;8123;50.906;6.172;2023-02-11T18:18:52;7.80;99.90
16038;DHT22;8123;50.906;6.172;2023-02-11T18:21:19;7.80;99.90